Time;durP1;ratioP1;P1;durP2;ratioP2;P2;SDS_P1;SDS_P2;PMS_P1;PMS_P2;Temp;Humidity;BMP_temperature;BMP_pressure;BME280_temperature;BME280_humidity;BME280_pressure;Samples;Min_cycle;Max_cycle;Signal;HPM_P1;HPM_P2
2021/08/06 00:01:30;;;;;;;26.10;17.73;;;;;;;16.78;78.82;99325.88;5069033;28;20044;-86
2021/08/06 00:03:56;;;;;;;25.58;17.38;;;;;;;16.83;78.81;99328.38;5051942;28;20291;-86
2021/08/06 00:06:27;;;;;;;29.15;18.13;;;;;;;16.84;78.94;99333.53;5053183;28;20044;-85
2021/08/06 00:08:54;;;;;;;31.33;19.67;;;;;;;16.85;78.36;99329.66;5053206;28;20049;-85
2021/08/06 00:11:29;;;;;;;63.30;18.77;;;;;;;16.87;77.33;99332.03;5068675;28;20049;-85
2021/08/06 00:13:58;;;;;;;27.50;18.50;;;;;;;16.77;77.48;99319.56;5053301;28;20510;-86
2021/08/06 00:16:24;;;;;;;31.35;17.88;;;;;;;16.68;77.40;99314.16;5053337;28;20124;-86
2021/08/06 00:18:51;;;;;;;29.88;17.90;;;;;;;16.65;77.15;99314.91;5051942;28;20040;-86
2021/08/06 00:21:18;;;;;;;36.92;18.30;;;;;;;16.67;77.41;99315.31;5054212;28;20060;-85
2021/08/06 00:23:45;;;;;;;38.97;18.30;;;;;;;16.48;77.28;99278.53;5053824;28;20036;-91
2021/08/06 00:26:12;;;;;;;29.80;17.70;;;;;;;16.53;77.07;99284.59;5054858;28;20127;-86
2021/08/06 00:28:41;;;;;;;34.33;18.70;;;;;;;16.72;77.59;99305.19;5053041;28;20047;-85
2021/08/06 00:31:08;;;;;;;44.33;19.83;;;;;;;16.74;77.69;99294.59;5053162;28;20033;-85
2021/08/06 00:33:35;;;;;;;32.00;19.85;;;;;;;16.57;78.30;99257.88;5053011;28;20045;-85
2021/08/06 00:36:03;;;;;;;38.67;20.77;;;;;;;16.57;79.08;99279.97;5068512;28;20049;-85
2021/08/06 00:38:30;;;;;;;;;;;;;;;16.51;79.64;99278.63;5052102;28;20048;-94
2021/08/06 00:40:56;;;;;;;28.38;19.88;;;;;;;16.33;79.88;99250.56;5051814;28;19921;-88
2021/08/06 00:43:24;;;;;;;31.77;21.02;;;;;;;16.36;80.15;99254.56;5052892;28;20033;-84
2021/08/06 00:45:51;;;;;;;36.22;21.27;;;;;;;16.45;80.18;99280.03;5068109;28;20083;-84
2021/08/06 00:48:25;;;;;;;43.72;20.42;;;;;;;16.51;79.89;99281.38;5051448;28;20044;-86
2021/08/06 00:50:57;;;;;;;43.50;20.25;;;;;;;16.54;79.90;99277.13;5051398;28;20060;-85
2021/08/06 00:53:24;;;;;;;40.55;19.40;;;;;;;16.65;79.45;99284.53;5068219;28;20041;-93
2021/08/06 00:55:52;;;;;;;32.70;20.30;;;;;;;16.68;79.31;99280.25;5054548;28;20039;-85
2021/08/06 00:58:21;;;;;;;39.13;19.88;;;;;;;16.63;78.75;99262.00;5071127;28;20582;-85
2021/08/06 01:00:48;;;;;;;;;;;;;;;16.77;78.78;99283.66;5071669;28;20387;-86
2021/08/06 01:03:26;;;;;;;53.00;20.67;;;;;;;16.58;78.78;99265.00;5070439;28;19920;-86
2021/08/06 01:06:10;;;;;;;53.53;20.25;;;;;;;16.74;78.55;99289.88;5069425;28;20052;-85
2021/08/06 01:09:20;;;;;;;46.03;20.02;;;;;;;16.70;78.60;99283.47;5068876;28;20079;-85
2021/08/06 01:11:54;;;;;;;28.52;19.52;;;;;;;16.37;78.59;99234.91;5010468;28;20048;-84
2021/08/06 01:14:24;;;;;;;31.15;18.42;;;;;;;16.67;78.19;99273.13;5055556;28;20071;-84
2021/08/06 01:16:58;;;;;;;28.35;19.50;;;;;;;16.63;78.15;99262.00;5072100;28;20094;-85
2021/08/06 01:19:57;;;;;;;34.43;20.53;;;;;;;16.34;77.99;99224.56;5070800;28;20044;-85
2021/08/06 01:22:41;;;;;;;37.30;20.08;;;;;;;16.65;78.44;99267.16;5054221;28;20036;-85
2021/08/06 01:25:14;;;;;;;33.88;19.70;;;;;;;16.65;78.56;99258.88;5070525;28;20416;-84
2021/08/06 01:27:51;;;;;;;31.20;20.35;;;;;;;16.71;78.39;99259.41;5070849;28;20043;-85
2021/08/06 01:30:23;;;;;;;38.35;22.20;;;;;;;16.64;78.24;99236.00;5072154;28;20044;-84
2021/08/06 01:32:55;;;;;;;39.63;23.35;;;;;;;16.76;78.40;99262.75;5071118;28;20032;-89
2021/08/06 01:35:22;;;;;;;35.47;21.92;;;;;;;16.78;78.69;99270.66;5071470;28;20043;-85
2021/08/06 01:37:49;;;;;;;40.70;22.52;;;;;;;16.75;78.90;99263.09;5070306;28;20127;-85
2021/08/06 01:40:16;;;;;;;34.25;22.77;;;;;;;16.75;78.91;99252.06;5070813;28;20044;-85
2021/08/06 01:43:22;;;;;;;38.78;23.98;;;;;;;16.74;78.20;99233.88;5070749;28;20473;-85
2021/08/06 01:46:04;;;;;;;48.28;23.85;;;;;;;16.87;78.25;99263.00;5067456;28;20441;-84
2021/08/06 01:48:36;;;;;;;39.72;24.20;;;;;;;16.91;78.24;99261.13;5052188;28;20056;-85
2021/08/06 01:51:11;;;;;;;45.45;24.35;;;;;;;16.95;78.56;99262.03;5070077;28;20119;-85
2021/08/06 01:53:43;;;;;;;55.40;26.80;;;;;;;16.94;78.60;99257.66;5071675;28;20087;-85
2021/08/06 01:56:18;;;;;;;39.08;22.98;;;;;;;16.88;78.47;99253.56;5071693;28;20040;-85
2021/08/06 01:58:55;;;;;;;42.55;23.77;;;;;;;16.89;78.54;99247.69;5054542;28;20064;-85
2021/08/06 02:01:32;;;;;;;45.28;25.20;;;;;;;16.99;78.56;99264.91;5070516;28;20036;-85
2021/08/06 02:04:25;;;;;;;46.20;24.17;;;;;;;17.09;78.52;99259.63;5068552;28;20063;-85
2021/08/06 02:07:19;;;;;;;54.67;23.70;;;;;;;16.88;77.62;99212.94;5068561;28;20131;-85
2021/08/06 02:09:53;;;;;;;49.17;24.65;;;;;;;17.18;78.01;99261.38;5070558;28;20045;-84
2021/08/06 02:12:24;;;;;;;38.90;23.42;;;;;;;17.17;78.06;99251.50;5063539;28;20060;-84
2021/08/06 02:14:56;;;;;;;50.95;24.85;;;;;;;17.18;77.65;99247.56;5067058;28;20044;-84
2021/08/06 02:17:25;;;;;;;37.78;23.08;;;;;;;17.12;78.20;99244.31;5051530;28;20091;-85
2021/08/06 02:19:58;;;;;;;39.28;23.20;;;;;;;17.03;77.62;99225.16;5066775;28;20048;-84
2021/08/06 02:22:27;;;;;;;55.63;23.55;;;;;;;17.18;77.47;99228.25;5069696;28;20044;-87
2021/08/06 02:24:55;;;;;;;63.88;24.63;;;;;;;17.24;77.24;99233.13;5070416;28;20102;-85
2021/08/06 02:27:30;;;;;;;43.10;23.63;;;;;;;17.09;77.28;99200.84;5071519;28;20044;-85
2021/08/06 02:30:03;;;;;;;51.85;23.42;;;;;;;17.22;77.71;99220.81;5073326;28;20056;-84
2021/08/06 02:32:35;;;;;;;42.80;23.75;;;;;;;17.15;77.59;99218.69;5071340;28;20048;-94
2021/08/06 02:35:02;;;;;;;39.25;23.42;;;;;;;17.22;77.49;99215.31;5068597;28;20037;-84
2021/08/06 02:37:30;;;;;;;38.42;21.92;;;;;;;17.10;77.14;99186.66;5064790;28;20050;-84
2021/08/06 02:39:57;;;;;;;60.25;23.77;;;;;;;17.16;77.26;99195.47;5071519;28;20513;-90
2021/08/06 02:42:23;;;;;;;44.43;22.20;;;;;;;17.32;76.83;99220.28;5071633;28;20041;-84
2021/08/06 02:44:49;;;;;;;48.35;22.83;;;;;;;17.31;76.56;99221.44;5070794;28;20040;-84
2021/08/06 02:47:15;;;;;;;53.07;22.77;;;;;;;17.28;77.41;99213.88;5070073;28;20047;-83
2021/08/06 02:49:42;;;;;;;40.33;21.48;;;;;;;17.12;76.98;99197.34;5071122;28;20068;-84
2021/08/06 02:52:08;;;;;;;50.40;22.67;;;;;;;17.31;77.22;99226.97;5071168;28;20079;-85
2021/08/06 02:54:36;;;;;;;52.83;22.75;;;;;;;17.08;77.31;99194.47;5069737;28;20512;-84
2021/08/06 02:57:03;;;;;;;;;;;;;;;17.32;77.36;99225.81;5053940;28;20132;-84
2021/08/06 02:59:31;;;;;;;50.53;23.02;;;;;;;17.11;77.80;99198.50;5069697;28;19966;-84
2021/08/06 03:01:58;;;;;;;59.27;23.30;;;;;;;17.24;77.21;99210.22;5071978;28;20044;-84
2021/08/06 03:04:24;;;;;;;56.25;23.25;;;;;;;17.26;77.18;99205.94;5073341;28;20121;-85
2021/08/06 03:06:50;;;;;;;46.40;24.23;;;;;;;17.29;77.19;99230.09;5073246;28;20049;-84
2021/08/06 03:09:22;;;;;;;51.60;25.35;;;;;;;17.20;78.07;99217.66;5073204;28;20036;-84
2021/08/06 03:11:48;;;;;;;47.85;25.58;;;;;;;17.24;77.68;99222.06;5074775;28;20067;-83
2021/08/06 03:14:14;;;;;;;55.13;27.23;;;;;;;17.25;77.84;99223.69;5073170;28;20513;-84
2021/08/06 03:16:41;;;;;;;49.58;26.92;;;;;;;17.07;78.31;99217.75;5074884;28;20800;-85
2021/08/06 03:19:09;;;;;;;56.13;28.00;;;;;;;17.18;78.47;99240.09;5073183;28;20094;-85
2021/08/06 03:21:36;;;;;;;52.85;27.85;;;;;;;17.19;78.54;99229.88;5075100;28;20123;-84
2021/08/06 03:24:03;;;;;;;50.08;26.48;;;;;;;17.16;78.50;99214.81;5094440;28;20479;-85
2021/08/06 03:26:29;;;;;;;64.38;27.92;;;;;;;17.28;78.49;99222.16;5072413;28;20045;-85
2021/08/06 03:28:58;;;;;;;58.03;25.77;;;;;;;17.42;77.71;99235.50;5053988;28;20041;-85
2021/08/06 03:31:26;;;;;;;41.15;22.55;;;;;;;17.37;77.72;99214.47;5052688;28;20413;-85
2021/08/06 03:33:52;;;;;;;47.17;24.30;;;;;;;17.34;77.79;99212.44;5069353;28;20044;-85
2021/08/06 03:36:20;;;;;;;38.90;23.73;;;;;;;17.53;77.71;99236.53;5053904;28;20049;-84
2021/08/06 03:38:49;;;;;;;41.30;23.75;;;;;;;17.47;77.84;99207.59;5069065;28;20057;-86
2021/08/06 03:41:15;;;;;;;37.43;23.20;;;;;;;17.58;77.38;99223.25;5052379;28;20040;-85
2021/08/06 03:43:41;;;;;;;53.07;23.70;;;;;;;17.63;77.17;99211.09;5053768;28;20106;-88
2021/08/06 03:46:08;;;;;;;42.43;22.57;;;;;;;17.78;76.85;99226.84;5052775;28;20045;-90
2021/08/06 03:48:35;;;;;;;43.78;22.50;;;;;;;17.73;76.89;99210.50;5069113;28;20049;-85
2021/08/06 03:51:02;;;;;;;46.63;21.65;;;;;;;17.78;76.46;99213.03;5053539;28;20066;-85
2021/08/06 03:53:29;;;;;;;42.20;22.50;;;;;;;17.94;76.85;99225.97;5053745;28;20128;-84
2021/08/06 03:55:55;;;;;;;65.43;22.03;;;;;;;17.99;76.60;99229.25;5053697;28;20060;-84
2021/08/06 03:58:24;;;;;;;55.72;22.30;;;;;;;18.02;75.93;99234.06;5064913;28;20079;-85
2021/08/06 04:00:52;;;;;;;57.53;23.58;;;;;;;18.01;75.52;99220.56;5053628;28;20124;-85
2021/08/06 04:03:18;;;;;;;49.95;21.55;;;;;;;17.99;75.74;99203.56;5068790;28;20127;-85
2021/08/06 04:05:46;;;;;;;52.15;22.35;;;;;;;18.11;76.02;99213.66;5068866;28;20052;-85
2021/08/06 04:08:16;;;;;;;75.43;25.30;;;;;;;18.03;76.04;99194.16;5051883;28;20052;-84
2021/08/06 04:10:48;;;;;;;63.83;22.73;;;;;;;18.04;75.80;99194.94;5053417;28;20227;-84
2021/08/06 04:13:16;;;;;;;45.55;20.90;;;;;;;18.24;75.83;99218.66;5053069;28;20670;-87
2021/08/06 04:15:42;;;;;;;54.50;21.33;;;;;;;18.31;75.63;99218.00;5052082;28;20045;-85
2021/08/06 04:18:09;;;;;;;48.05;21.35;;;;;;;18.35;75.87;99221.63;5053836;28;20049;-84
2021/08/06 04:20:35;;;;;;;59.80;23.83;;;;;;;18.29;75.77;99203.72;5071953;28;20060;-84
2021/08/06 04:23:04;;;;;;;;;;;;;;;18.45;75.50;99226.56;5083654;28;20044;-85
2021/08/06 04:25:31;;;;;;;50.45;20.45;;;;;;;18.42;75.00;99209.91;5092103;28;19938;-84
2021/08/06 04:27:58;;;;;;;45.90;20.17;;;;;;;18.46;74.51;99225.38;5093286;28;20123;-85
2021/08/06 04:30:24;;;;;;;61.30;21.57;;;;;;;18.48;74.03;99216.72;5072336;28;20132;-85
2021/08/06 04:32:50;;;;;;;52.42;20.42;;;;;;;18.58;74.20;99229.97;5071529;28;20036;-84
2021/08/06 04:35:18;;;;;;;37.53;19.60;;;;;;;18.57;73.93;99225.56;5054954;28;20037;-85
2021/08/06 04:37:48;;;;;;;43.30;19.90;;;;;;;18.42;73.25;99191.31;5072873;28;20098;-84
2021/08/06 04:40:15;;;;;;;37.30;18.95;;;;;;;18.54;73.63;99206.94;5061507;28;20045;-85
2021/08/06 04:42:41;;;;;;;27.65;17.55;;;;;;;18.71;73.63;99228.59;5053296;28;20556;-85
2021/08/06 04:45:08;;;;;;;40.00;18.20;;;;;;;18.61;73.42;99220.09;5052924;28;20048;-94
2021/08/06 04:47:36;;;;;;;32.38;19.55;;;;;;;18.58;73.68;99220.84;5051944;28;20159;-90
2021/08/06 04:50:03;;;;;;;32.25;19.88;;;;;;;18.57;73.93;99222.81;5068594;28;20051;-91
2021/08/06 04:52:30;;;;;;;27.98;19.00;;;;;;;18.65;74.38;99234.81;5035264;28;20047;-90
2021/08/06 04:54:58;;;;;;;38.17;20.25;;;;;;;18.61;73.77;99228.41;5052178;28;20092;-89
2021/08/06 04:57:25;;;;;;;32.28;20.20;;;;;;;18.72;74.43;99226.66;5034694;28;20417;-88
2021/08/06 04:59:52;;;;;;;40.80;20.58;;;;;;;18.67;74.53;99218.63;5051216;28;20048;-91
2021/08/06 05:02:21;;;;;;;35.92;19.55;;;;;;;18.76;74.30;99227.53;5074708;28;20506;-93
2021/08/06 05:04:47;;;;;;;32.40;20.63;;;;;;;18.64;74.10;99203.56;5089681;28;20047;-92
2021/08/06 05:07:18;;;;;;;35.63;19.30;;;;;;;18.84;74.10;99233.97;5092034;28;20039;-88
2021/08/06 05:09:45;;;;;;;29.20;19.35;;;;;;;18.58;74.00;99202.28;5091784;28;20044;-89
2021/08/06 05:12:13;;;;;;;32.20;18.80;;;;;;;18.47;74.56;99201.28;5052859;28;20029;-93
2021/08/06 05:14:41;;;;;;;33.47;20.80;;;;;;;18.66;74.25;99226.13;5062004;28;20509;-94
2021/08/06 05:17:08;;;;;;;35.30;19.80;;;;;;;18.57;74.41;99197.88;5055206;28;20056;-87
2021/08/06 05:19:34;;;;;;;38.65;20.52;;;;;;;18.67;73.89;99216.66;5054011;28;20439;-92
2021/08/06 05:22:00;;;;;;;39.13;20.90;;;;;;;18.75;74.48;99212.09;5080453;28;20820;-87
2021/08/06 05:24:26;;;;;;;40.03;21.13;;;;;;;18.71;74.21;99198.16;5072365;28;20041;-88
2021/08/06 05:26:52;;;;;;;53.13;20.37;;;;;;;18.86;73.12;99221.34;5072496;28;20097;-88
2021/08/06 05:29:18;;;;;;;59.13;23.05;;;;;;;18.80;73.68;99202.66;5088551;28;20104;-91
2021/08/06 05:31:44;;;;;;;59.15;24.30;;;;;;;18.97;73.13;99213.22;5081883;28;20066;-92
2021/08/06 05:34:11;;;;;;;;;;;;;;;19.25;73.38;99254.44;5086483;28;20513;-89
2021/08/06 05:36:37;;;;;;;53.38;24.60;;;;;;;19.08;73.83;99235.56;5086676;28;19927;-87
2021/08/06 05:39:05;;;;;;;43.55;22.73;;;;;;;19.07;73.88;99228.41;5092593;28;20056;-88
2021/08/06 05:41:31;;;;;;;38.22;20.30;;;;;;;19.07;74.68;99226.44;5046355;28;20043;-93
2021/08/06 05:43:58;;;;;;;;;;;;;;;19.30;73.83;99254.09;5058596;28;20123;-87
2021/08/06 05:46:24;;;;;;;38.35;19.50;;;;;;;18.99;73.70;99208.09;5090137;28;20415;-92
2021/08/06 05:48:50;;;;;;;30.23;19.15;;;;;;;18.99;73.79;99214.44;5072442;28;20041;-89
2021/08/06 05:51:16;;;;;;;28.15;19.23;;;;;;;18.84;73.66;99179.41;5071904;28;20048;-89
2021/08/06 05:53:45;;;;;;;30.33;18.63;;;;;;;18.97;73.67;99199.34;5055478;28;20040;-84
2021/08/06 05:56:12;;;;;;;33.40;16.77;;;;;;;19.46;72.75;99254.72;5070989;28;20498;-91
2021/08/06 05:58:49;;;;;;;41.15;18.90;;;;;;;19.58;72.57;99244.59;5053598;28;20060;-78
2021/08/06 06:01:15;;;;;;;47.33;19.80;;;;;;;19.69;72.43;99251.91;5067558;28;20052;-79
2021/08/06 06:03:57;;;;;;;48.20;21.70;;;;;;;19.71;73.12;99248.78;5067711;28;20334;-79
2021/08/06 06:06:42;;;;;;;45.15;19.50;;;;;;;19.74;72.16;99242.47;5076435;28;20054;-88
2021/08/06 06:09:10;;;;;;;57.78;21.08;;;;;;;19.71;72.50;99232.13;5085479;28;20526;-91
2021/08/06 06:11:36;;;;;;;53.65;20.95;;;;;;;19.77;71.96;99233.41;5089046;28;20485;-80
2021/08/06 06:14:04;;;;;;;37.72;18.63;;;;;;;19.88;71.96;99236.31;5087338;28;20068;-87
2021/08/06 06:16:30;;;;;;;41.30;16.37;;;;;;;19.99;71.64;99242.00;5075428;28;20041;-82
2021/08/06 06:18:58;;;;;;;45.15;22.85;;;;;;;19.98;72.34;99230.09;5066845;28;20364;-90
2021/08/06 06:21:24;;;;;;;48.45;24.60;;;;;;;20.08;71.96;99228.63;5051493;28;20670;-88
2021/08/06 06:23:51;;;;;;;38.80;22.05;;;;;;;20.18;71.35;99241.81;5057393;28;20036;-90
2021/08/06 06:26:17;;;;;;;34.88;19.85;;;;;;;20.26;71.15;99239.91;5062099;28;20115;-78
2021/08/06 06:28:43;;;;;;;39.47;18.25;;;;;;;20.26;70.33;99223.25;5052655;28;20045;-89
2021/08/06 06:31:09;;;;;;;49.60;20.30;;;;;;;20.39;71.07;99239.25;5048827;28;20040;-85
2021/08/06 06:33:38;;;;;;;41.20;21.90;;;;;;;20.40;70.24;99237.31;5070015;28;20040;-89
2021/08/06 06:36:05;;;;;;;55.55;25.42;;;;;;;20.46;69.83;99232.19;5046111;28;20048;-76
2021/08/06 06:38:31;;;;;;;47.95;21.00;;;;;;;20.53;70.04;99233.13;5072246;28;20102;-79
2021/08/06 06:40:59;;;;;;;37.65;19.55;;;;;;;20.58;70.18;99223.63;5069664;28;21055;-81
2021/08/06 06:43:30;;;;;;;43.25;18.83;;;;;;;20.75;69.84;99233.28;5079208;28;20488;-78
2021/08/06 06:45:56;;;;;;;49.22;21.27;;;;;;;20.88;69.01;99232.63;5076662;28;20046;-85
2021/08/06 06:48:25;;;;;;;25.50;17.27;;;;;;;20.99;68.00;99241.06;5081708;28;20043;-88
2021/08/06 06:50:52;;;;;;;28.70;17.67;;;;;;;21.12;67.70;99244.31;5071954;28;20067;-88
2021/08/06 06:53:19;;;;;;;36.45;18.17;;;;;;;21.10;67.89;99222.47;5079793;28;20036;-80
2021/08/06 06:55:48;;;;;;;33.60;19.38;;;;;;;21.28;67.25;99244.81;5066844;28;20098;-79
2021/08/06 06:58:15;;;;;;;27.95;15.18;;;;;;;21.39;66.70;99238.56;5083330;28;20101;-85
2021/08/06 07:00:42;;;;;;;34.30;18.58;;;;;;;21.43;67.52;99256.88;5068225;28;20467;-86
2021/08/06 07:03:10;;;;;;;32.38;18.33;;;;;;;21.51;67.85;99250.16;5075442;28;20037;-81
2021/08/06 07:05:37;;;;;;;;;;;;;;;21.56;67.08;99244.25;5076686;28;20400;-80
2021/08/06 07:08:04;;;;;;;35.47;19.00;;;;;;;21.59;66.69;99259.38;5088033;28;19920;-80
2021/08/06 07:10:34;;;;;;;32.22;17.13;;;;;;;21.66;66.92;99247.50;5081770;28;20413;-83
2021/08/06 07:13:00;;;;;;;33.55;18.98;;;;;;;21.68;66.66;99251.47;5077284;28;20052;-87
2021/08/06 07:15:29;;;;;;;34.47;17.23;;;;;;;21.77;67.02;99253.91;5079807;28;20035;-91
2021/08/06 07:17:56;;;;;;;33.38;16.98;;;;;;;21.84;66.16;99253.13;5065003;28;20057;-88
2021/08/06 07:20:23;;;;;;;42.95;19.83;;;;;;;21.95;67.03;99260.34;5059154;28;20037;-82
2021/08/06 07:22:51;;;;;;;42.10;19.02;;;;;;;21.97;66.67;99244.03;5062592;28;20036;-89
2021/08/06 07:25:18;;;;;;;40.45;17.63;;;;;;;22.16;65.31;99254.09;5062078;28;20036;-90
2021/08/06 07:27:46;;;;;;;36.22;16.77;;;;;;;22.22;65.02;99246.97;5069504;28;20051;-83
2021/08/06 07:30:15;;;;;;;41.45;18.90;;;;;;;22.27;64.64;99252.13;5047198;28;20127;-82
2021/08/06 07:32:43;;;;;;;32.00;17.00;;;;;;;22.37;65.43;99250.56;5058986;28;20123;-87
2021/08/06 07:35:16;;;;;;;39.40;15.77;;;;;;;22.39;64.44;99233.47;5078098;28;20055;-88
2021/08/06 07:37:45;;;;;;;43.53;15.70;;;;;;;22.65;64.42;99246.22;5067732;28;20480;-80
2021/08/06 07:40:13;;;;;;;36.30;16.38;;;;;;;22.78;63.98;99241.06;5063227;28;20150;-82
2021/08/06 07:42:41;;;;;;;37.22;15.32;;;;;;;22.92;63.47;99235.53;5083163;28;20040;-87
2021/08/06 07:45:08;;;;;;;32.53;14.38;;;;;;;22.86;63.62;99231.53;5068048;28;20044;-82
2021/08/06 07:47:34;;;;;;;28.27;13.10;;;;;;;22.89;62.99;99234.31;5086863;28;20043;-89
2021/08/06 07:50:01;;;;;;;33.53;13.50;;;;;;;22.81;63.02;99227.13;5076442;28;20583;-89
2021/08/06 07:52:27;;;;;;;42.90;14.23;;;;;;;22.80;64.97;99227.56;5076107;28;20486;-91
2021/08/06 07:54:53;;;;;;;;;;;;;;;22.81;63.79;99229.13;5062742;28;20051;-87
2021/08/06 07:57:22;;;;;;;21.63;11.77;;;;;;;22.78;63.97;99222.38;5075488;28;20016;-80
2021/08/06 07:59:48;;;;;;;29.00;12.77;;;;;;;22.88;65.24;99215.19;5063805;28;20117;-83
2021/08/06 08:02:16;;;;;;;34.95;13.13;;;;;;;22.85;63.81;99205.66;5083444;28;20029;-82
2021/08/06 08:04:43;;;;;;;26.20;12.82;;;;;;;22.89;63.62;99214.03;5068161;28;20044;-83
2021/08/06 08:07:09;;;;;;;26.05;12.68;;;;;;;22.87;64.07;99219.97;5076376;28;20527;-81
2021/08/06 08:09:35;;;;;;;26.52;12.25;;;;;;;22.84;64.08;99217.19;5071246;28;20064;-88
2021/08/06 08:12:02;;;;;;;21.05;11.65;;;;;;;22.82;63.81;99236.31;5067212;28;20071;-79
2021/08/06 08:14:30;;;;;;;24.77;11.70;;;;;;;22.79;63.93;99232.34;5055360;28;20242;-83
2021/08/06 08:16:58;;;;;;;22.73;11.25;;;;;;;22.79;64.15;99228.75;5062599;28;20051;-80
2021/08/06 08:19:25;;;;;;;22.55;11.60;;;;;;;22.74;63.86;99218.78;5073383;28;20051;-77
2021/08/06 08:21:52;;;;;;;32.58;12.98;;;;;;;22.86;64.22;99223.19;5077388;28;20230;-80
2021/08/06 08:24:18;;;;;;;29.40;11.73;;;;;;;22.91;64.43;99219.97;5065190;28;20028;-81
2021/08/06 08:26:46;;;;;;;31.20;13.38;;;;;;;23.00;64.26;99214.84;5066089;28;20123;-88
2021/08/06 08:29:12;;;;;;;;;;;;;;;23.08;62.62;99213.66;5042186;28;20045;-86
2021/08/06 08:31:40;;;;;;;25.25;13.40;;;;;;;23.26;61.53;99215.59;5078742;28;20297;-86
2021/08/06 08:34:06;;;;;;;22.83;12.82;;;;;;;23.34;62.35;99217.19;5075473;28;20041;-83
2021/08/06 08:36:33;;;;;;;21.05;12.77;;;;;;;23.39;61.58;99217.56;5058297;28;20047;-87
2021/08/06 08:39:04;;;;;;;33.78;16.52;;;;;;;23.41;63.07;99220.75;5063634;28;20063;-78
2021/08/06 08:41:36;;;;;;;76.60;19.40;;;;;;;23.38;63.66;99220.78;5061504;28;20131;-81
2021/08/06 08:44:03;;;;;;;32.17;14.52;;;;;;;23.45;62.53;99215.97;5062061;28;20040;-83
2021/08/06 08:46:30;;;;;;;42.45;17.10;;;;;;;23.45;61.36;99210.38;5059231;28;20056;-91
2021/08/06 08:49:00;;;;;;;30.92;19.25;;;;;;;23.43;61.58;99211.97;5064476;28;20119;-88
2021/08/06 08:51:30;;;;;;;27.05;16.92;;;;;;;23.55;62.97;99219.94;5058055;28;20094;-91
2021/08/06 08:54:00;;;;;;;58.47;20.05;;;;;;;23.56;62.25;99213.16;5062969;28;20447;-91
2021/08/06 08:56:30;;;;;;;113.75;23.23;;;;;;;23.56;61.29;99213.16;5057745;28;20043;-90
2021/08/06 08:58:58;;;;;;;44.63;18.50;;;;;;;23.58;61.12;99201.59;5061850;28;20098;-89
2021/08/06 09:01:25;;;;;;;32.33;16.15;;;;;;;23.66;59.73;99212.31;5056462;28;20044;-94
2021/08/06 09:03:52;;;;;;;28.58;16.95;;;;;;;23.78;59.96;99215.91;5064838;28;20461;-93
2021/08/06 09:06:42;;;;;;;34.15;16.60;;;;;;;23.77;60.62;99214.28;5063865;28;20076;-90
2021/08/06 09:09:21;;;;;;;36.25;16.42;;;;;;;23.79;60.45;99212.69;5057294;28;20154;-88
2021/08/06 09:12:20;;;;;;;34.80;18.75;;;;;;;23.71;61.16;99213.13;5062690;28;20067;-92
2021/08/06 09:14:48;;;;;;;37.35;17.92;;;;;;;23.70;62.26;99223.50;5056153;28;20048;-92
2021/08/06 09:17:14;;;;;;;28.85;16.92;;;;;;;23.66;60.91;99205.94;5063482;28;20460;-91
2021/08/06 09:19:44;;;;;;;28.23;16.02;;;;;;;23.66;61.07;99206.72;5056085;28;20078;-89
2021/08/06 09:22:22;;;;;;;37.05;18.48;;;;;;;23.80;60.90;99230.25;5077073;28;20409;-79
2021/08/06 09:25:16;;;;;;;30.25;16.73;;;;;;;23.78;63.04;99238.22;5060701;28;20091;-93
2021/08/06 09:27:47;;;;;;;32.90;15.43;;;;;;;23.84;61.84;99237.41;5059512;28;20036;-87
2021/08/06 09:30:24;;;;;;;39.75;18.63;;;;;;;23.81;61.12;99237.44;5076270;28;20079;-78
2021/08/06 09:32:55;;;;;;;35.13;19.02;;;;;;;23.77;62.29;99239.41;5081350;28;20047;-84
2021/08/06 09:35:25;;;;;;;39.55;20.83;;;;;;;23.66;62.92;99231.84;5057622;28;20028;-94
2021/08/06 09:37:52;;;;;;;37.83;22.52;;;;;;;23.64;63.79;99242.63;5079471;28;20048;-80
2021/08/06 09:40:22;;;;;;;32.38;21.73;;;;;;;23.48;63.70;99252.63;5069435;28;20044;-79
2021/08/06 09:43:00;;;;;;;47.97;22.80;;;;;;;23.39;64.49;99251.03;5036644;28;20127;-81
2021/08/06 09:45:34;;;;;;;39.65;20.42;;;;;;;23.47;63.72;99262.19;5035272;28;20037;-81
2021/08/06 09:48:02;;;;;;;44.28;23.02;;;;;;;23.42;65.46;99260.63;5045198;28;20045;-79
2021/08/06 09:50:38;;;;;;;42.65;21.58;;;;;;;23.25;65.62;99239.13;5052353;28;20119;-79
2021/08/06 09:53:07;;;;;;;40.90;22.27;;;;;;;23.14;67.09;99244.69;5051419;28;20053;-75
2021/08/06 09:55:39;;;;;;;42.22;21.65;;;;;;;23.14;67.66;99255.84;5050258;28;20045;-77
2021/08/06 09:58:09;;;;;;;40.42;22.15;;;;;;;23.06;68.09;99249.50;5051729;28;20045;-77
2021/08/06 10:00:41;;;;;;;49.38;20.38;;;;;;;22.96;67.68;99247.50;5055837;28;20504;-88
2021/08/06 10:03:08;;;;;;;37.38;19.38;;;;;;;22.92;68.60;99252.25;5071395;28;20078;-77
2021/08/06 10:05:34;;;;;;;;;;;;;;;22.87;69.12;99247.06;5071551;28;20131;-77
2021/08/06 10:08:03;;;;;;;38.20;21.65;;;;;;;22.79;70.51;99245.47;5068925;28;20027;-78
2021/08/06 10:10:31;;;;;;;29.70;18.08;;;;;;;22.71;68.42;99248.25;5071923;28;20098;-94
2021/08/06 10:12:59;;;;;;;30.70;17.27;;;;;;;22.80;68.59;99261.00;5071342;28;20429;-76
2021/08/06 10:15:26;;;;;;;31.20;19.10;;;;;;;22.71;70.17;99255.81;5057766;28;20053;-78
2021/08/06 10:17:54;;;;;;;28.60;17.67;;;;;;;22.75;69.13;99248.25;5062097;28;20045;-77
2021/08/06 10:20:23;;;;;;;38.67;19.00;;;;;;;22.74;70.80;99257.81;5075463;28;20091;-76
2021/08/06 10:22:51;;;;;;;29.70;18.92;;;;;;;22.63;70.52;99243.84;5057019;28;20037;-81
2021/08/06 10:25:20;;;;;;;42.50;19.95;;;;;;;22.58;70.80;99238.66;5054357;28;20037;-89
2021/08/06 10:27:49;;;;;;;38.45;21.52;;;;;;;22.49;71.50;99232.69;5071657;28;20041;-89
2021/08/06 10:30:31;;;;;;;33.78;21.35;;;;;;;22.22;70.91;99216.34;5054994;28;20059;-89
2021/08/06 10:33:19;;;;;;;43.53;23.58;;;;;;;21.94;70.97;99171.66;5072437;28;20033;-89
2021/08/06 10:35:52;;;;;;;43.17;24.70;;;;;;;22.33;72.57;99252.56;5056133;28;20045;-89
2021/08/06 10:38:39;;;;;;;48.10;25.73;;;;;;;22.03;73.00;99199.94;5055699;28;20053;-89
2021/08/06 10:41:17;;;;;;;37.67;24.63;;;;;;;21.84;71.79;99192.72;5071019;28;20032;-88
2021/08/06 10:44:05;;;;;;;48.50;25.77;;;;;;;21.90;73.34;99193.13;5037768;28;20033;-88
2021/08/06 10:46:52;;;;;;;45.17;26.15;;;;;;;22.01;72.95;99221.78;5054127;28;20087;-88
2021/08/06 10:49:20;;;;;;;45.70;26.70;;;;;;;21.94;73.97;99216.19;5037589;28;20040;-88
2021/08/06 10:51:46;;;;;;;50.22;26.85;;;;;;;21.57;73.34;99176.31;5070735;28;20089;-88
2021/08/06 10:54:12;;;;;;;50.83;26.23;;;;;;;21.85;73.49;99226.91;5054219;28;20182;-88
2021/08/06 10:56:40;;;;;;;41.55;22.92;;;;;;;21.56;73.24;99194.19;5070453;28;20041;-87
2021/08/06 10:59:13;;;;;;;43.60;25.77;;;;;;;21.44;74.09;99191.72;5053565;28;20047;-88
2021/08/06 11:01:49;;;;;;;43.35;23.48;;;;;;;21.40;73.22;99193.69;5037150;28;20103;-88
2021/08/06 11:04:18;;;;;;;31.27;22.08;;;;;;;21.58;73.51;99235.50;5054058;28;20033;-89
2021/08/06 11:06:47;;;;;;;42.30;24.73;;;;;;;21.57;74.72;99234.72;5070299;28;20127;-89
2021/08/06 11:11:52;;;;;;;;;;;;;;;21.56;73.10;99237.91;5070850;28;20421;-89
2021/08/06 11:14:18;;;;;;;47.72;27.52;;;;;;;21.53;74.21;99238.69;5053978;28;19935;-88
2021/08/06 11:17:20;;;;;;;49.35;29.60;;;;;;;21.64;75.61;99241.50;5055367;28;20045;-89
2021/08/06 11:20:07;;;;;;;42.72;30.95;;;;;;;21.55;75.68;99200.91;5055520;28;20076;-90
2021/08/06 11:22:37;;;;;;;48.08;33.28;;;;;;;21.86;76.11;99225.72;5055025;28;20094;-89
2021/08/06 11:25:17;;;;;;;47.33;31.42;;;;;;;21.83;75.18;99218.16;5055195;28;20072;-89
2021/08/06 11:27:49;;;;;;;47.13;32.83;;;;;;;21.94;75.92;99228.13;5070374;28;20074;-88
2021/08/06 11:30:32;;;;;;;50.40;33.97;;;;;;;21.81;75.57;99207.41;5053004;28;20053;-88
2021/08/06 11:33:09;;;;;;;68.45;35.20;;;;;;;21.78;75.45;99205.41;5053371;28;20037;-88
2021/08/06 11:35:43;;;;;;;45.85;31.63;;;;;;;21.50;74.24;99167.13;5037113;28;20041;-88